Time;durP1;ratioP1;P1;durP2;ratioP2;P2;SDS_P1;SDS_P2;PMS_P1;PMS_P2;Temp;Humidity;BMP_temperature;BMP_pressure;BME280_temperature;BME280_humidity;BME280_pressure;Samples;Min_cycle;Max_cycle;Signal;HPM_P1;HPM_P2
2023/06/01 03:16:16;;;;;;;4.60;1.40;;;15.40;76.80;;;;;;6190836;22;1406126;-77
2023/06/01 03:18:42;;;;;;;7.00;2.58;;;15.40;76.70;;;;;;6267581;22;81762;-80
2023/06/01 03:21:08;;;;;;;7.18;1.83;;;15.40;76.90;;;;;;6241585;22;83572;-78
2023/06/01 03:23:33;;;;;;;4.72;2.17;;;15.40;77.20;;;;;;6254686;22;80465;-80
2023/06/01 03:25:59;;;;;;;6.78;2.35;;;15.30;78.40;;;;;;6252882;22;80553;-79
2023/06/01 03:28:25;;;;;;;11.90;2.50;;;15.30;78.20;;;;;;6226762;22;85221;-79
2023/06/01 03:30:51;;;;;;;7.20;2.40;;;15.20;78.10;;;;;;6226314;22;84271;-79
2023/06/01 03:33:17;;;;;;;8.45;2.17;;;15.20;78.30;;;;;;6253041;22;81008;-83
2023/06/01 03:35:44;;;;;;;6.95;2.88;;;15.20;78.90;;;;;;6251683;22;80920;-80
2023/06/01 03:38:10;;;;;;;8.65;2.42;;;15.20;78.60;;;;;;6254433;22;81635;-82
2023/06/01 03:40:36;;;;;;;7.68;2.90;;;15.20;78.60;;;;;;6253779;22;81743;-81
2023/06/01 03:43:03;;;;;;;9.38;3.47;;;15.20;78.80;;;;;;6253730;22;80957;-83
2023/06/01 03:45:28;;;;;;;11.90;2.72;;;15.20;78.90;;;;;;6253983;22;82343;-84
2023/06/01 03:47:54;;;;;;;7.43;2.50;;;15.20;78.80;;;;;;6253987;22;80658;-82
2023/06/01 03:50:20;;;;;;;8.93;2.92;;;15.30;79.10;;;;;;6253815;22;80851;-83
2023/06/01 03:52:46;;;;;;;8.68;2.75;;;15.30;78.60;;;;;;6253610;22;80965;-83
2023/06/01 03:55:13;;;;;;;8.63;2.70;;;15.30;78.10;;;;;;6251809;22;80511;-79
2023/06/01 03:57:39;;;;;;;4.93;1.75;;;15.40;77.90;;;;;;6225245;22;81331;-79
2023/06/01 04:00:26;;;;;;;5.10;2.28;;;15.60;77.30;;;;;;6251721;22;81765;-80
2023/06/01 04:02:55;;;;;;;8.80;2.85;;;15.90;77.10;;;;;;6250586;22;81668;-80
2023/06/01 04:05:22;;;;;;;7.68;2.63;;;16.20;75.90;;;;;;6253629;22;81687;-78
2023/06/01 04:07:49;;;;;;;7.25;3.05;;;16.40;76.50;;;;;;6253654;22;81159;-80
2023/06/01 04:10:16;;;;;;;5.07;2.60;;;16.70;74.50;;;;;;6254183;22;81237;-81
2023/06/01 04:12:43;;;;;;;6.50;2.60;;;17.10;73.40;;;;;;6253110;22;81916;-82
2023/06/01 04:15:10;;;;;;;8.52;2.55;;;17.50;72.20;;;;;;6254147;22;80451;-82
2023/06/01 04:17:40;;;;;;;8.77;3.10;;;17.70;72.30;;;;;;6232561;22;81343;-78
2023/06/01 04:20:11;;;;;;;5.53;3.00;;;17.90;70.70;;;;;;6222383;22;80714;-77
2023/06/01 04:22:38;;;;;;;6.85;2.58;;;18.10;70.00;;;;;;6222510;22;80911;-77
2023/06/01 04:25:07;;;;;;;6.32;2.35;;;18.40;69.60;;;;;;6222700;22;80241;-77
2023/06/01 04:27:36;;;;;;;7.25;2.85;;;18.70;68.40;;;;;;6222200;22;80830;-77
2023/06/01 04:30:03;;;;;;;7.85;2.67;;;18.90;68.50;;;;;;6222222;22;81162;-80
2023/06/01 04:32:29;;;;;;;9.77;2.92;;;19.30;67.30;;;;;;6195349;22;81451;-78
2023/06/01 04:34:56;;;;;;;9.90;3.13;;;19.40;66.80;;;;;;6223198;22;80545;-80
2023/06/01 04:37:22;;;;;;;11.55;3.33;;;19.50;66.90;;;;;;6222069;22;81042;-80
2023/06/01 04:39:50;;;;;;;7.40;3.03;;;20.00;65.30;;;;;;6222314;22;80704;-78
2023/06/01 04:42:16;;;;;;;5.57;2.90;;;20.40;63.00;;;;;;6221830;22;80489;-82
2023/06/01 04:44:49;;;;;;;7.82;2.85;;;20.70;62.10;;;;;;6223051;22;80424;-80
2023/06/01 04:47:16;;;;;;;8.80;3.13;;;21.00;60.70;;;;;;6221199;22;81496;-85
2023/06/01 04:49:43;;;;;;;9.07;3.17;;;21.50;60.40;;;;;;6222239;22;81371;-81
2023/06/01 04:52:12;;;;;;;9.98;3.17;;;22.20;58.70;;;;;;6222474;22;81265;-81
2023/06/01 04:54:37;;;;;;;8.15;2.83;;;23.00;58.20;;;;;;6222537;22;80729;-81
2023/06/01 04:57:06;;;;;;;5.65;3.33;;;23.50;55.90;;;;;;6222431;22;81352;-75
2023/06/01 04:59:32;;;;;;;6.95;3.80;;;23.50;55.00;;;;;;6221691;22;82758;-81
2023/06/01 05:01:58;;;;;;;6.97;3.78;;;23.80;55.10;;;;;;6222072;22;80720;-84
2023/06/01 05:04:23;;;;;;;5.43;3.78;;;24.50;54.10;;;;;;6221911;22;80557;-82
2023/06/01 05:06:49;;;;;;;7.43;3.58;;;24.70;52.90;;;;;;6222179;22;81663;-82
2023/06/01 05:09:15;;;;;;;6.03;4.28;;;25.00;54.00;;;;;;6222293;22;80551;-85
2023/06/01 05:11:41;;;;;;;7.07;3.67;;;26.00;51.50;;;;;;6222263;22;81032;-81
2023/06/01 05:14:07;;;;;;;8.82;3.97;;;26.80;50.40;;;;;;6221908;22;80523;-82
2023/06/01 05:16:33;;;;;;;7.22;4.20;;;27.60;49.30;;;;;;6214742;22;80754;-83
2023/06/01 05:18:58;;;;;;;6.95;4.53;;;28.00;48.20;;;;;;6190957;22;81623;-82
2023/06/01 05:21:24;;;;;;;7.47;4.15;;;28.20;47.70;;;;;;6190887;22;80364;-84
2023/06/01 05:23:50;;;;;;;5.55;3.63;;;28.40;46.50;;;;;;6190025;22;80886;-82
2023/06/01 05:26:16;;;;;;;5.75;3.13;;;28.40;45.40;;;;;;6190283;22;83545;-83
2023/06/01 05:28:42;;;;;;;11.93;3.80;;;28.20;45.60;;;;;;6190876;22;83223;-82
2023/06/01 05:31:08;;;;;;;6.07;3.30;;;28.50;45.70;;;;;;6201299;22;81901;-85
2023/06/01 05:33:33;;;;;;;5.85;3.88;;;28.30;46.00;;;;;;6216751;22;81795;-82
2023/06/01 05:35:59;;;;;;;7.28;4.28;;;28.70;44.90;;;;;;6189384;22;82989;-82
2023/06/01 05:38:25;;;;;;;10.82;3.80;;;29.20;45.80;;;;;;6190343;22;84409;-84
2023/06/01 05:40:51;;;;;;;10.55;4.38;;;30.00;44.20;;;;;;6188848;22;83118;-83
2023/06/01 05:43:16;;;;;;;9.63;4.80;;;30.60;43.50;;;;;;6189803;22;82412;-84
2023/06/01 05:45:42;;;;;;;6.07;4.00;;;30.90;43.00;;;;;;6190179;22;82515;-82
2023/06/01 05:48:08;;;;;;;7.75;3.97;;;30.80;41.90;;;;;;6190661;22;81918;-82
2023/06/01 05:50:33;;;;;;;9.65;3.90;;;30.20;42.60;;;;;;6191364;22;82238;-83
2023/06/01 05:52:59;;;;;;;8.05;4.38;;;29.80;43.20;;;;;;6192015;22;81535;-82
2023/06/01 05:55:25;;;;;;;8.43;4.38;;;29.40;43.70;;;;;;6191227;22;83919;-82
2023/06/01 05:57:50;;;;;;;9.10;5.20;;;29.70;44.60;;;;;;6191661;22;82260;-82
2023/06/01 06:00:17;;;;;;;7.63;4.68;;;30.50;43.50;;;;;;6160899;22;82856;-84
2023/06/01 06:02:45;;;;;;;7.25;4.97;;;31.30;42.70;;;;;;6161193;22;82450;-84
2023/06/01 06:05:11;;;;;;;12.48;4.95;;;32.20;41.80;;;;;;6161403;22;83590;-82
2023/06/01 06:07:37;;;;;;;9.00;5.70;;;32.30;41.10;;;;;;6160819;22;82268;-83
2023/06/01 06:10:03;;;;;;;9.27;4.88;;;32.50;40.80;;;;;;6161556;22;82129;-85
2023/06/01 06:12:29;;;;;;;7.55;3.95;;;32.50;40.00;;;;;;6161584;22;82289;-83
2023/06/01 06:14:55;;;;;;;8.23;4.63;;;33.20;40.40;;;;;;6161019;22;82714;-83
2023/06/01 06:17:21;;;;;;;15.63;5.65;;;33.50;40.00;;;;;;6160716;22;82389;-84
2023/06/01 06:19:48;;;;;;;7.63;5.35;;;33.60;39.80;;;;;;6160955;22;82278;-83
2023/06/01 06:22:14;;;;;;;10.90;5.45;;;34.20;38.80;;;;;;6161420;22;82594;-85
2023/06/01 06:24:40;;;;;;;9.55;5.45;;;34.00;39.00;;;;;;6160343;22;84087;-84
2023/06/01 06:27:06;;;;;;;8.82;5.13;;;34.30;38.30;;;;;;6160748;22;84204;-83
2023/06/01 06:29:32;;;;;;;9.93;5.63;;;35.10;37.80;;;;;;6161213;22;82310;-83
2023/06/01 06:31:58;;;;;;;11.77;4.97;;;35.90;37.20;;;;;;6161950;22;82866;-84
2023/06/01 06:34:24;;;;;;;8.15;4.75;;;36.20;36.70;;;;;;6160984;22;83011;-83
2023/06/01 06:36:49;;;;;;;10.98;5.70;;;36.30;36.80;;;;;;6160421;22;82374;-83
2023/06/01 06:39:15;;;;;;;7.88;5.93;;;35.40;36.30;;;;;;6161354;22;82014;-83
2023/06/01 06:41:42;;;;;;;10.48;6.13;;;36.00;36.10;;;;;;6161391;22;81895;-82
2023/06/01 06:44:08;;;;;;;9.10;5.97;;;36.70;36.30;;;;;;6160408;22;82938;-85
2023/06/01 06:46:33;;;;;;;9.63;6.95;;;37.40;35.50;;;;;;6161557;22;82709;-84
2023/06/01 06:48:59;;;;;;;12.40;5.63;;;37.10;34.90;;;;;;6159998;22;83873;-84
2023/06/01 06:51:25;;;;;;;8.30;6.70;;;37.30;35.40;;;;;;6161431;22;81925;-84
2023/06/01 06:53:51;;;;;;;11.05;6.97;;;37.20;35.00;;;;;;6160694;22;82432;-84
2023/06/01 06:56:16;;;;;;;6.20;4.47;;;36.40;35.20;;;;;;6160968;22;83156;-83
2023/06/01 06:58:43;;;;;;;10.30;5.82;;;35.90;36.70;;;;;;6171749;22;82237;-84
2023/06/01 07:01:09;;;;;;;9.75;6.05;;;36.60;35.60;;;;;;6190675;22;81959;-83
2023/06/01 07:03:35;;;;;;;8.65;7.05;;;37.50;35.20;;;;;;6191179;22;83126;-84
2023/06/01 07:06:01;;;;;;;15.02;6.90;;;37.00;33.60;;;;;;6191456;22;81631;-83
2023/06/01 07:08:26;;;;;;;9.13;6.35;;;37.20;33.90;;;;;;6191485;22;82224;-84
2023/06/01 07:10:55;;;;;;;11.38;6.40;;;37.50;33.30;;;;;;6191908;22;82267;-83
2023/06/01 07:13:21;;;;;;;7.45;6.32;;;37.70;33.80;;;;;;6190505;22;83600;-83
2023/06/01 07:15:47;;;;;;;8.48;4.82;;;37.60;33.90;;;;;;6190916;22;83680;-84
2023/06/01 07:18:13;;;;;;;10.13;6.97;;;37.40;33.20;;;;;;6190835;22;82223;-83
2023/06/01 07:20:38;;;;;;;9.05;6.47;;;37.20;33.40;;;;;;6191650;22;81993;-84
2023/06/01 07:23:04;;;;;;;12.73;6.32;;;37.50;33.60;;;;;;6191039;22;83017;-83
2023/06/01 07:25:30;;;;;;;10.20;7.30;;;38.20;33.40;;;;;;6190365;22;82322;-83
2023/06/01 07:27:56;;;;;;;7.28;5.70;;;38.30;33.10;;;;;;6191558;22;82176;-85
2023/06/01 07:30:22;;;;;;;12.93;7.10;;;38.50;33.00;;;;;;6191857;22;81243;-86
2023/06/01 07:32:48;;;;;;;8.52;7.25;;;38.30;33.10;;;;;;6190933;22;83246;-82
2023/06/01 07:35:13;;;;;;;8.93;7.43;;;38.80;33.20;;;;;;6191216;22;83133;-85
2023/06/01 07:37:40;;;;;;;10.00;7.13;;;38.70;32.80;;;;;;6190497;22;83308;-83
2023/06/01 07:40:07;;;;;;;10.85;6.65;;;38.80;33.40;;;;;;6191198;22;82268;-84
2023/06/01 07:42:33;;;;;;;9.57;6.82;;;38.70;33.20;;;;;;6190595;22;83045;-84
2023/06/01 07:44:59;;;;;;;9.73;7.13;;;39.40;33.20;;;;;;6196465;22;82196;-86
2023/06/01 07:47:25;;;;;;;13.23;8.40;;;39.40;32.80;;;;;;6168372;22;82306;-83
2023/06/01 07:49:51;;;;;;;12.02;7.47;;;39.20;32.00;;;;;;6191388;22;82824;-83
2023/06/01 07:52:17;;;;;;;9.90;7.38;;;39.80;32.50;;;;;;6191021;22;83783;-86
2023/06/01 07:54:43;;;;;;;12.43;7.32;;;39.90;31.80;;;;;;6191440;22;83811;-84
2023/06/01 07:57:08;;;;;;;10.40;8.05;;;39.60;32.30;;;;;;6191353;22;82227;-84
2023/06/01 07:59:34;;;;;;;9.95;8.00;;;39.60;33.10;;;;;;6190656;22;82349;-85
2023/06/01 08:02:00;;;;;;;9.63;7.00;;;39.30;32.30;;;;;;6190317;22;83296;-84
2023/06/01 08:04:27;;;;;;;10.80;8.18;;;39.90;31.80;;;;;;6190177;22;83263;-84
2023/06/01 08:06:53;;;;;;;11.82;8.02;;;40.60;31.90;;;;;;6190752;22;82119;-86
2023/06/01 08:09:23;;;;;;;12.05;8.25;;;40.70;31.70;;;;;;6191894;22;82128;-83
2023/06/01 08:11:49;;;;;;;11.18;8.93;;;40.70;31.40;;;;;;6190439;22;82602;-84
2023/06/01 08:14:16;;;;;;;16.88;8.20;;;40.80;32.10;;;;;;6190641;22;83226;-84
2023/06/01 08:16:42;;;;;;;14.48;7.47;;;40.80;31.90;;;;;;6190889;22;82377;-84
2023/06/01 08:19:08;;;;;;;9.77;8.07;;;41.00;32.20;;;;;;6192020;22;81810;-86
2023/06/01 08:21:35;;;;;;;10.90;8.77;;;41.30;32.40;;;;;;6191206;22;83630;-84
2023/06/01 08:24:01;;;;;;;10.77;8.02;;;41.60;31.70;;;;;;6190565;22;82338;-84
2023/06/01 08:26:28;;;;;;;11.00;8.70;;;41.60;31.70;;;;;;6190499;22;83511;-84
2023/06/01 08:28:53;;;;;;;14.07;8.85;;;41.90;31.20;;;;;;6191172;22;81952;-84
2023/06/01 08:31:20;;;;;;;16.13;9.40;;;42.40;31.20;;;;;;6191188;22;82526;-84
2023/06/01 08:33:46;;;;;;;9.85;6.05;;;42.50;30.90;;;;;;6191155;22;82182;-84
2023/06/01 08:36:11;;;;;;;10.88;5.75;;;42.40;31.10;;;;;;6190930;22;82395;-85
2023/06/01 08:38:37;;;;;;;10.93;8.30;;;42.40;30.60;;;;;;6190961;22;82014;-84
2023/06/01 08:41:34;;;;;;;11.65;9.10;;;42.80;30.60;;;;;;6191010;22;82720;-86
2023/06/01 08:44:03;;;;;;;12.30;8.18;;;42.50;30.50;;;;;;6174929;22;82716;-83
2023/06/01 08:46:31;;;;;;;13.13;9.13;;;43.30;30.60;;;;;;6190530;22;82309;-83
2023/06/01 08:48:58;;;;;;;13.65;9.32;;;42.80;29.90;;;;;;6190950;22;82500;-84
2023/06/01 08:51:25;;;;;;;11.23;6.95;;;43.10;30.30;;;;;;6190075;22;84486;-86
2023/06/01 08:53:52;;;;;;;10.45;8.90;;;42.30;30.40;;;;;;6190647;22;83371;-85
2023/06/01 08:56:19;;;;;;;13.23;6.80;;;42.60;30.40;;;;;;6190140;22;82324;-84
2023/06/01 08:58:46;;;;;;;10.48;9.50;;;43.10;30.00;;;;;;6190180;22;82244;-84
2023/06/01 09:01:23;;;;;;;17.80;10.13;;;43.40;30.00;;;;;;6190671;22;83119;-84
2023/06/01 09:03:51;;;;;;;13.13;8.93;;;43.70;30.40;;;;;;6189439;22;83329;-84
2023/06/01 09:06:17;;;;;;;16.60;9.77;;;43.90;29.70;;;;;;6190748;22;82426;-86
2023/06/01 09:08:44;;;;;;;14.23;10.75;;;43.70;30.20;;;;;;6191122;22;81574;-84
2023/06/01 09:11:10;;;;;;;11.10;9.93;;;43.50;30.70;;;;;;6188942;22;82847;-84
2023/06/01 09:13:38;;;;;;;8.43;6.68;;;43.50;30.80;;;;;;6190439;22;83102;-85
2023/06/01 09:16:04;;;;;;;10.60;9.00;;;43.70;29.40;;;;;;6189784;22;83507;-85
2023/06/01 09:18:30;;;;;;;12.65;10.95;;;44.10;30.10;;;;;;6190934;22;81844;-86
2023/06/01 09:21:15;;;;;;;10.02;9.02;;;44.30;29.90;;;;;;6189473;22;83067;-84
2023/06/01 09:23:44;;;;;;;12.73;10.77;;;44.10;29.90;;;;;;6190113;22;82807;-84
2023/06/01 09:26:11;;;;;;;13.07;9.75;;;44.10;30.00;;;;;;6190581;22;82551;-85
2023/06/01 09:28:56;;;;;;;13.13;9.07;;;43.90;30.00;;;;;;6191330;22;81885;-85
2023/06/01 09:31:35;;;;;;;11.25;9.27;;;43.90;29.80;;;;;;6192223;22;82976;-84
2023/06/01 09:34:01;;;;;;;12.93;9.43;;;44.10;29.60;;;;;;6191821;22;83484;-83
2023/06/01 09:36:27;;;;;;;13.05;9.45;;;43.60;29.70;;;;;;6191272;22;82465;-83
2023/06/01 09:39:03;;;;;;;10.52;9.48;;;42.90;30.30;;;;;;6192477;22;82189;-86
2023/06/01 09:41:53;;;;;;;12.98;9.10;;;42.50;31.10;;;;;;6191406;22;83882;-84
2023/06/01 09:44:41;;;;;;;9.80;8.50;;;42.30;30.20;;;;;;6191212;22;83855;-86
2023/06/01 09:47:10;;;;;;;14.68;8.75;;;42.50;30.60;;;;;;6191911;22;82286;-84
2023/06/01 09:49:50;;;;;;;9.95;7.97;;;42.50;30.90;;;;;;6192001;22;82107;-84
2023/06/01 09:52:17;;;;;;;9.30;8.07;;;42.70;31.60;;;;;;6191485;22;83571;-84
2023/06/01 09:54:46;;;;;;;11.45;6.65;;;42.20;31.10;;;;;;6191256;22;82888;-84
2023/06/01 09:57:12;;;;;;;10.05;7.45;;;41.60;31.70;;;;;;6191460;22;82332;-84
2023/06/01 09:59:46;;;;;;;9.32;7.38;;;41.30;32.60;;;;;;6194254;22;81428;-85
2023/06/01 10:02:16;;;;;;;9.52;6.22;;;39.80;31.10;;;;;;6191227;22;83075;-83
2023/06/01 10:04:49;;;;;;;9.82;6.72;;;38.60;32.50;;;;;;6191348;22;82364;-84
2023/06/01 10:07:17;;;;;;;9.32;5.82;;;37.60;35.10;;;;;;6190836;22;83713;-83
2023/06/01 10:09:46;;;;;;;13.15;6.47;;;36.60;35.20;;;;;;6191009;22;82414;-83
2023/06/01 10:12:13;;;;;;;8.27;4.95;;;35.40;37.00;;;;;;6190340;22;82219;-83
2023/06/01 10:14:39;;;;;;;6.10;5.00;;;34.10;37.10;;;;;;6190671;22;82828;-82
2023/06/01 10:17:05;;;;;;;8.43;4.20;;;33.10;38.90;;;;;;6189142;22;82338;-84
2023/06/01 10:19:31;;;;;;;6.00;3.97;;;32.60;39.30;;;;;;6190067;22;82206;-82
2023/06/01 10:21:59;;;;;;;7.13;3.67;;;32.10;39.40;;;;;;6190557;22;82496;-84
2023/06/01 10:24:26;;;;;;;12.18;4.07;;;31.70;41.10;;;;;;6190544;22;82957;-81
2023/06/01 10:27:11;;;;;;;7.38;3.80;;;31.30;41.40;;;;;;6189371;22;82233;-83
2023/06/01 10:29:37;;;;;;;6.72;3.58;;;30.80;41.70;;;;;;6189645;22;82394;-81
2023/06/01 10:32:03;;;;;;;5.65;2.40;;;30.60;40.30;;;;;;6190409;22;84454;-82
2023/06/01 10:34:44;;;;;;;7.55;3.35;;;30.20;42.40;;;;;;6188526;22;84135;-82
2023/06/01 10:37:14;;;;;;;9.13;3.30;;;30.20;42.50;;;;;;6190044;22;82229;-82
2023/06/01 10:39:40;;;;;;;5.68;3.03;;;30.20;42.70;;;;;;6186139;22;82489;-81
2023/06/01 10:42:14;;;;;;;6.05;3.83;;;30.10;41.80;;;;;;6186764;22;83586;-83
2023/06/01 10:44:40;;;;;;;7.32;3.55;;;29.90;42.40;;;;;;6187813;22;82223;-80
2023/06/01 10:47:12;;;;;;;9.00;3.28;;;29.60;43.50;;;;;;6188176;22;82016;-79
2023/06/01 10:49:46;;;;;;;11.75;2.55;;;29.60;42.60;;;;;;6186143;22;81553;-80
2023/06/01 10:52:33;;;;;;;10.85;3.58;;;29.40;43.70;;;;;;6188089;22;82581;-81
2023/06/01 10:55:13;;;;;;;5.82;3.08;;;29.20;43.20;;;;;;6187993;22;82829;-86
2023/06/01 10:57:48;;;;;;;6.88;2.58;;;29.10;41.40;;;;;;6161068;22;83495;-83
2023/06/01 11:00:15;;;;;;;6.30;3.17;;;29.00;42.90;;;;;;6187862;22;82503;-83
2023/06/01 11:02:53;;;;;;;6.43;2.92;;;28.90;44.20;;;;;;6188283;22;82973;-82
2023/06/01 11:05:48;;;;;;;9.95;3.05;;;28.90;43.60;;;;;;6188873;22;82656;-83
2023/06/01 11:08:20;;;;;;;7.53;2.08;;;28.90;43.00;;;;;;6189076;22;82209;-80
2023/06/01 11:10:51;;;;;;;5.28;2.42;;;28.90;42.50;;;;;;6188873;22;81942;-83
2023/06/01 11:13:29;;;;;;;7.50;3.03;;;28.90;44.40;;;;;;6188680;22;84266;-81
2023/06/01 11:16:07;;;;;;;6.50;2.75;;;29.00;44.50;;;;;;6188745;22;83908;-82
2023/06/01 11:18:57;;;;;;;5.13;2.72;;;29.00;45.50;;;;;;6188618;22;82414;-85
2023/06/01 11:21:29;;;;;;;7.53;3.20;;;28.80;43.40;;;;;;6189164;22;82368;-86
2023/06/01 11:23:57;;;;;;;12.52;2.92;;;28.70;45.00;;;;;;6186849;22;83362;-83
2023/06/01 11:26:35;;;;;;;4.30;2.63;;;28.50;45.10;;;;;;6187917;22;83623;-82
2023/06/01 11:29:25;;;;;;;7.72;2.65;;;28.50;44.50;;;;;;6190101;22;81886;-83
2023/06/01 11:31:56;;;;;;;9.63;3.00;;;28.40;45.40;;;;;;6192134;22;82165;-85
2023/06/01 11:34:41;;;;;;;6.22;3.10;;;28.40;46.70;;;;;;6191153;22;82990;-82
2023/06/01 11:37:14;;;;;;;7.28;2.75;;;28.40;46.30;;;;;;6191799;22;82571;-84
2023/06/01 11:39:41;;;;;;;6.95;3.08;;;28.50;46.90;;;;;;6191644;22;82381;-82
2023/06/01 11:42:09;;;;;;;10.02;3.83;;;28.50;47.00;;;;;;6192004;22;81463;-83
2023/06/01 11:44:37;;;;;;;11.82;3.20;;;28.50;46.70;;;;;;6191357;22;83174;-84
2023/06/01 11:47:04;;;;;;;6.93;2.88;;;28.60;47.80;;;;;;6191194;22;83317;-83
2023/06/01 11:49:29;;;;;;;5.80;3.08;;;28.70;46.50;;;;;;6190731;22;83225;-83
2023/06/01 11:51:58;;;;;;;6.32;3.13;;;28.90;46.20;;;;;;6191755;22;82214;-82
2023/06/01 11:54:28;;;;;;;5.00;3.00;;;28.90;46.50;;;;;;6191268;22;82263;-82
2023/06/01 11:56:55;;;;;;;7.90;2.75;;;29.00;45.40;;;;;;6191469;22;82831;-82
2023/06/01 11:59:22;;;;;;;8.38;2.83;;;29.10;46.60;;;;;;6191472;22;81930;-83
2023/06/01 12:01:49;;;;;;;6.15;3.22;;;29.00;46.50;;;;;;6191844;22;82178;-82
2023/06/01 12:04:21;;;;;;;5.22;2.85;;;29.00;46.20;;;;;;6191795;22;82147;-82
2023/06/01 12:06:47;;;;;;;9.95;3.17;;;28.90;46.20;;;;;;6192168;22;82743;-84
2023/06/01 12:09:15;;;;;;;6.13;3.35;;;29.00;45.90;;;;;;6192432;22;82230;-84
2023/06/01 12:11:44;;;;;;;6.43;3.05;;;29.00;46.00;;;;;;6184076;22;82221;-84
2023/06/01 12:14:14;;;;;;;6.50;2.30;;;29.10;45.40;;;;;;6193060;22;84823;-84
2023/06/01 12:17:04;;;;;;;6.70;3.28;;;28.90;45.50;;;;;;6164519;22;85895;-84
2023/06/01 12:19:31;;;;;;;7.38;2.95;;;29.00;45.80;;;;;;6191362;22;82323;-84
2023/06/01 12:21:58;;;;;;;9.82;2.78;;;29.10;45.10;;;;;;6191682;22;82274;-83
2023/06/01 12:24:32;;;;;;;10.63;3.22;;;29.10;47.00;;;;;;6190741;22;82211;-82
2023/06/01 12:26:59;;;;;;;6.85;2.42;;;29.10;47.30;;;;;;6191389;22;82986;-82
2023/06/01 12:29:41;;;;;;;9.95;3.08;;;29.30;45.70;;;;;;6191506;22;82283;-82
2023/06/01 12:32:08;;;;;;;3.78;2.58;;;29.30;45.30;;;;;;6191480;22;81649;-83
2023/06/01 12:34:35;;;;;;;4.00;2.55;;;29.20;43.80;;;;;;6190944;22;82503;-82
2023/06/01 12:37:12;;;;;;;7.78;3.25;;;29.10;45.70;;;;;;6191380;22;82512;-83
2023/06/01 12:39:39;;;;;;;4.75;2.35;;;29.10;46.10;;;;;;6190542;22;83111;-81
2023/06/01 12:42:06;;;;;;;5.32;2.85;;;29.30;45.10;;;;;;6191730;22;82206;-84
2023/06/01 12:44:34;;;;;;;6.30;2.85;;;29.40;43.90;;;;;;6190409;22;84027;-84
2023/06/01 12:47:00;;;;;;;4.40;2.40;;;29.30;46.00;;;;;;6191527;22;83071;-83
2023/06/01 12:49:26;;;;;;;7.00;2.70;;;29.20;45.70;;;;;;6191454;22;82066;-83
2023/06/01 12:51:52;;;;;;;4.72;2.85;;;29.30;45.70;;;;;;6191157;22;81967;-84
2023/06/01 12:54:18;;;;;;;7.80;2.92;;;29.40;45.90;;;;;;6190586;22;83361;-83
2023/06/01 12:56:44;;;;;;;7.70;2.67;;;29.60;43.40;;;;;;6191841;22;81765;-82
2023/06/01 12:59:10;;;;;;;6.03;2.67;;;29.60;46.60;;;;;;6190620;22;82474;-82
2023/06/01 13:01:36;;;;;;;5.53;2.72;;;29.70;44.50;;;;;;6191814;22;81853;-82
2023/06/01 13:04:04;;;;;;;5.68;2.88;;;29.70;45.20;;;;;;6189376;22;83367;-82
2023/06/01 13:06:30;;;;;;;5.15;2.55;;;29.80;42.80;;;;;;6191122;22;84124;-84
2023/06/01 13:08:57;;;;;;;3.78;2.53;;;29.70;45.40;;;;;;6191024;22;81862;-82
2023/06/01 13:11:22;;;;;;;4.85;2.20;;;29.70;44.20;;;;;;6191231;22;81996;-83
2023/06/01 13:13:48;;;;;;;4.72;2.22;;;29.70;44.10;;;;;;6190289;22;82877;-83
2023/06/01 13:16:15;;;;;;;4.97;2.47;;;29.70;43.30;;;;;;6190744;22;82336;-82
2023/06/01 13:18:41;;;;;;;4.25;2.50;;;29.80;42.50;;;;;;6190517;22;82413;-86
2023/06/01 13:21:07;;;;;;;5.05;2.33;;;29.80;43.30;;;;;;6191755;22;81343;-86
2023/06/01 13:23:33;;;;;;;6.43;2.42;;;29.80;41.80;;;;;;6164129;22;85031;-82
2023/06/01 13:25:59;;;;;;;9.98;2.95;;;29.90;42.90;;;;;;6191025;22;82627;-83
2023/06/01 13:28:24;;;;;;;5.70;2.63;;;30.00;43.10;;;;;;6163671;22;83318;-84
2023/06/01 13:30:50;;;;;;;6.10;2.35;;;30.20;43.00;;;;;;6190273;22;82570;-83
2023/06/01 13:33:16;;;;;;;4.43;2.90;;;30.50;42.10;;;;;;6190161;22;83596;-82
2023/06/01 13:35:42;;;;;;;4.28;2.95;;;30.40;42.00;;;;;;6190377;22;82705;-84
2023/06/01 13:38:08;;;;;;;7.00;2.40;;;30.60;42.40;;;;;;6190751;22;81931;-85
2023/06/01 13:40:34;;;;;;;6.78;2.75;;;30.70;42.10;;;;;;6190892;22;82639;-83
2023/06/01 13:42:59;;;;;;;8.63;2.65;;;30.90;42.70;;;;;;6190350;22;83492;-82
2023/06/01 13:45:26;;;;;;;6.05;2.55;;;30.90;41.00;;;;;;6190668;22;82089;-84
2023/06/01 13:47:54;;;;;;;5.72;3.22;;;31.10;40.70;;;;;;6190269;22;82392;-81
2023/06/01 13:50:21;;;;;;;6.70;2.88;;;31.10;39.50;;;;;;6190330;22;82100;-83
2023/06/01 13:52:46;;;;;;;5.88;2.72;;;31.00;42.10;;;;;;6189761;22;84354;-82
2023/06/01 13:55:12;;;;;;;5.80;2.95;;;31.10;41.30;;;;;;6190075;22;83164;-82
2023/06/01 13:57:40;;;;;;;3.92;2.63;;;31.20;41.40;;;;;;6190907;22;82550;-84
2023/06/01 14:00:08;;;;;;;7.57;3.33;;;31.10;40.30;;;;;;6190346;22;82316;-83
2023/06/01 14:02:34;;;;;;;6.82;2.40;;;31.10;41.60;;;;;;6190313;22;82273;-81
2023/06/01 14:05:00;;;;;;;7.28;2.85;;;31.10;41.10;;;;;;6189707;22;82354;-81
2023/06/01 14:07:26;;;;;;;6.07;3.30;;;31.10;41.60;;;;;;6190398;22;82237;-83
2023/06/01 14:09:52;;;;;;;4.68;3.00;;;30.90;39.50;;;;;;6190818;22;81582;-83
2023/06/01 14:12:18;;;;;;;5.90;2.97;;;30.80;39.60;;;;;;6191530;22;82364;-84
2023/06/01 14:14:44;;;;;;;4.68;2.28;;;30.80;41.10;;;;;;6190860;22;82545;-83
2023/06/01 14:17:09;;;;;;;6.72;2.63;;;30.80;41.00;;;;;;6191158;22;83311;-83
2023/06/01 14:19:35;;;;;;;9.18;3.35;;;30.90;43.80;;;;;;6191790;22;82294;-84
2023/06/01 14:22:01;;;;;;;6.35;3.42;;;30.90;42.30;;;;;;6196427;22;82590;-84
2023/06/01 14:24:27;;;;;;;8.27;3.08;;;30.90;41.80;;;;;;6201920;22;82058;-82
2023/06/01 14:26:52;;;;;;;7.18;2.75;;;30.80;41.50;;;;;;6191148;22;81778;-84
2023/06/01 14:29:18;;;;;;;6.43;3.67;;;30.80;42.70;;;;;;6191531;22;82291;-84
2023/06/01 14:31:44;;;;;;;12.25;3.05;;;30.90;44.10;;;;;;6191406;22;83611;-83
2023/06/01 14:34:09;;;;;;;2.55;1.60;;;30.80;43.60;;;;;;6189181;22;82704;-73
2023/06/01 14:36:36;;;;;;;3.58;1.85;;;30.70;46.00;;;;;;6188408;22;82418;-72
2023/06/01 14:39:01;;;;;;;6.30;3.20;;;30.20;47.20;;;;;;6188906;22;82440;-73
2023/06/01 14:41:27;;;;;;;10.90;3.17;;;29.60;48.40;;;;;;6188015;22;84597;-73
2023/06/01 14:43:54;;;;;;;9.75;3.22;;;29.00;45.80;;;;;;6190210;22;84166;-72
2023/06/01 14:46:21;;;;;;;12.57;2.92;;;28.60;45.60;;;;;;6189813;22;82506;-73
2023/06/01 14:48:47;;;;;;;12.23;3.13;;;27.80;46.40;;;;;;6190559;22;82212;-72
2023/06/01 14:51:12;;;;;;;8.35;3.78;;;27.40;47.60;;;;;;6190591;22;82453;-71
2023/06/01 14:53:39;;;;;;;5.03;2.22;;;27.10;49.40;;;;;;6190616;22;83186;-72
2023/06/01 14:56:05;;;;;;;11.98;3.05;;;26.70;49.80;;;;;;6190793;22;82201;-72
2023/06/01 14:58:31;;;;;;;7.45;2.40;;;26.40;50.10;;;;;;6191109;22;81543;-72
2023/06/01 15:00:58;;;;;;;11.30;2.80;;;26.10;51.70;;;;;;6190613;22;83049;-72
2023/06/01 15:03:23;;;;;;;8.10;2.78;;;25.70;52.30;;;;;;6191069;22;82193;-72
2023/06/01 15:05:50;;;;;;;6.68;2.35;;;25.40;53.30;;;;;;6187877;22;83185;-72
2023/06/01 15:08:16;;;;;;;8.73;2.63;;;25.10;53.90;;;;;;6190098;22;82349;-72
2023/06/01 15:10:44;;;;;;;7.57;2.35;;;25.10;54.20;;;;;;6190619;22;83704;-72
2023/06/01 15:13:10;;;;;;;9.52;2.63;;;25.00;54.40;;;;;;6190325;22;82940;-73
2023/06/01 15:15:35;;;;;;;11.20;2.80;;;25.10;54.00;;;;;;6188286;22;82747;-72
2023/06/01 15:18:01;;;;;;;4.03;2.42;;;25.20;54.60;;;;;;6188017;22;82260;-72
2023/06/01 15:20:29;;;;;;;11.15;3.03;;;25.10;54.50;;;;;;6182894;22;82654;-72
2023/06/01 15:22:55;;;;;;;9.98;3.03;;;25.00;54.50;;;;;;6186673;22;82007;-72
2023/06/01 15:25:20;;;;;;;11.43;2.00;;;24.70;55.00;;;;;;6187769;22;82264;-72
2023/06/01 15:27:46;;;;;;;8.48;2.17;;;24.70;55.70;;;;;;6187349;22;82793;-72
2023/06/01 15:30:12;;;;;;;8.38;2.95;;;24.80;56.00;;;;;;6187332;22;84109;-72
2023/06/01 15:32:37;;;;;;;6.40;2.92;;;24.90;55.70;;;;;;6186991;22;83768;-72
2023/06/01 15:35:04;;;;;;;6.55;2.58;;;24.80;56.10;;;;;;6187749;22;83198;-72
2023/06/01 15:37:30;;;;;;;7.75;2.70;;;24.70;56.20;;;;;;6188801;22;82308;-73
2023/06/01 15:39:56;;;;;;;6.35;2.60;;;24.60;57.30;;;;;;6184770;22;82457;-72
2023/06/01 15:42:22;;;;;;;7.15;2.72;;;24.50;57.40;;;;;;6187776;22;83319;-72
2023/06/01 15:44:47;;;;;;;4.93;2.17;;;24.40;57.40;;;;;;6187731;22;81969;-73
2023/06/01 15:47:13;;;;;;;5.78;2.20;;;24.40;57.80;;;;;;6188299;22;82026;-73
2023/06/01 15:49:40;;;;;;;6.35;2.55;;;24.60;57.30;;;;;;6187914;22;82559;-72
2023/06/01 15:52:06;;;;;;;6.63;2.22;;;24.70;57.30;;;;;;6187779;22;82613;-72
2023/06/01 15:54:33;;;;;;;12.45;2.70;;;24.80;56.30;;;;;;6186845;22;83911;-73
2023/06/01 15:57:00;;;;;;;7.45;2.20;;;24.70;56.80;;;;;;6189818;22;82345;-73
2023/06/01 15:59:26;;;;;;;4.75;2.03;;;24.70;56.50;;;;;;6190134;22;82898;-72
2023/06/01 16:01:51;;;;;;;9.45;2.15;;;24.70;56.50;;;;;;6190806;22;83230;-73